LYBE/BEG METAR and TAF weather

Enter ICAO airport designator
Station Type Date Time Source
LYBE METAR 2019/05/19 06:00 UTC NOAA

LYBE 190600Z VRB01KT 9999 FEW007 17/14 Q1007 NOSIG


Station Type Date Time Source
LYBE Decoded METAR 2019/05/19 06:00 UTC NOAA

Beograd / Surcin, Serbia and Montenegro (LYBE) 44-49N 020-17E 99M
May 19, 2019 - 02:00 AM EDT / 2019.05.19 0600 UTC
Wind: Variable at 1 MPH (1 KT):0
Visibility: greater than 7 mile(s):0
Sky conditions: mostly clear
Temperature: 62 F (17 C)
Dew Point: 57 F (14 C)
Relative Humidity: 82%
Pressure (altimeter): 29.74 in. Hg (1007 hPa)
ob: LYBE 190600Z VRB01KT 9999 FEW007 17/14 Q1007 NOSIG
cycle: 6

Station Type Date Time Source
LYBE TAF 2019/05/19 06:21 UTC NOAA

TAF LYBE 190500Z 1906/2006 13006KT 5000 BR NSC TX24/1913Z TN12/2004Z
BECMG 1906/1907 9999 NSW
TEMPO 1914/1921 VRB20KT 3000 TSRA SCT027CB BKN033
TEMPO 2002/2005 1500 BR BKN005

Example: see airport list